sensor_id;sensor_type;location;lat;lon;timestamp;P1;durP1;ratioP1;P2;durP2;ratioP2
48122;SDS011;33907;47.426;18.906;2023-05-07T00:02:01;5.37;;;3.22;;
48122;SDS011;33907;47.426;18.906;2023-05-07T00:04:28;4.20;;;2.62;;
48122;SDS011;33907;47.426;18.906;2023-05-07T00:07:02;5.05;;;2.70;;
48122;SDS011;33907;47.426;18.906;2023-05-07T00:09:30;5.22;;;2.50;;
48122;SDS011;33907;47.426;18.906;2023-05-07T00:11:57;6.70;;;3.20;;
48122;SDS011;33907;47.426;18.906;2023-05-07T00:14:25;4.93;;;2.87;;
48122;SDS011;33907;47.426;18.906;2023-05-07T00:16:53;7.20;;;3.25;;
48122;SDS011;33907;47.426;18.906;2023-05-07T00:19:20;4.93;;;2.90;;
48122;SDS011;33907;47.426;18.906;2023-05-07T00:21:48;4.90;;;2.92;;
48122;SDS011;33907;47.426;18.906;2023-05-07T00:24:16;5.87;;;3.33;;
48122;SDS011;33907;47.426;18.906;2023-05-07T00:26:43;6.37;;;3.53;;
48122;SDS011;33907;47.426;18.906;2023-05-07T00:29:11;6.15;;;3.45;;
48122;SDS011;33907;47.426;18.906;2023-05-07T00:31:38;6.87;;;4.00;;
48122;SDS011;33907;47.426;18.906;2023-05-07T00:34:06;5.22;;;3.58;;
48122;SDS011;33907;47.426;18.906;2023-05-07T00:36:33;6.32;;;4.10;;
48122;SDS011;33907;47.426;18.906;2023-05-07T00:39:01;5.80;;;3.87;;
48122;SDS011;33907;47.426;18.906;2023-05-07T00:41:30;9.63;;;4.40;;
48122;SDS011;33907;47.426;18.906;2023-05-07T00:43:57;7.55;;;4.43;;
48122;SDS011;33907;47.426;18.906;2023-05-07T00:46:25;6.55;;;4.50;;
48122;SDS011;33907;47.426;18.906;2023-05-07T00:48:53;9.15;;;5.22;;
48122;SDS011;33907;47.426;18.906;2023-05-07T00:51:21;7.93;;;5.53;;
48122;SDS011;33907;47.426;18.906;2023-05-07T00:53:49;8.32;;;6.00;;
48122;SDS011;33907;47.426;18.906;2023-05-07T00:56:16;9.05;;;6.18;;
48122;SDS011;33907;47.426;18.906;2023-05-07T00:58:44;8.68;;;5.82;;
48122;SDS011;33907;47.426;18.906;2023-05-07T01:01:12;8.93;;;5.90;;
48122;SDS011;33907;47.426;18.906;2023-05-07T01:03:39;8.02;;;5.65;;
48122;SDS011;33907;47.426;18.906;2023-05-07T01:06:08;7.32;;;5.50;;
48122;SDS011;33907;47.426;18.906;2023-05-07T01:08:36;9.00;;;5.62;;
48122;SDS011;33907;47.426;18.906;2023-05-07T01:11:07;9.05;;;5.70;;
48122;SDS011;33907;47.426;18.906;2023-05-07T01:13:34;7.25;;;5.47;;
48122;SDS011;33907;47.426;18.906;2023-05-07T01:16:03;9.45;;;6.20;;
48122;SDS011;33907;47.426;18.906;2023-05-07T01:18:31;9.68;;;6.30;;
48122;SDS011;33907;47.426;18.906;2023-05-07T01:20:59;8.68;;;6.45;;
48122;SDS011;33907;47.426;18.906;2023-05-07T01:23:29;9.30;;;6.82;;
48122;SDS011;33907;47.426;18.906;2023-05-07T01:25:57;8.35;;;6.50;;
48122;SDS011;33907;47.426;18.906;2023-05-07T01:28:25;9.07;;;7.12;;
48122;SDS011;33907;47.426;18.906;2023-05-07T01:30:54;11.63;;;8.63;;
48122;SDS011;33907;47.426;18.906;2023-05-07T01:33:24;12.43;;;9.07;;
48122;SDS011;33907;47.426;18.906;2023-05-07T01:35:53;10.55;;;8.68;;
48122;SDS011;33907;47.426;18.906;2023-05-07T01:38:21;11.57;;;9.20;;
48122;SDS011;33907;47.426;18.906;2023-05-07T01:40:49;12.75;;;8.32;;
48122;SDS011;33907;47.426;18.906;2023-05-07T01:43:17;12.20;;;9.32;;
48122;SDS011;33907;47.426;18.906;2023-05-07T01:45:46;13.85;;;10.80;;
48122;SDS011;33907;47.426;18.906;2023-05-07T01:48:16;15.95;;;12.50;;
48122;SDS011;33907;47.426;18.906;2023-05-07T01:50:44;14.85;;;11.12;;
48122;SDS011;33907;47.426;18.906;2023-05-07T01:53:11;13.65;;;10.73;;
48122;SDS011;33907;47.426;18.906;2023-05-07T01:55:39;14.87;;;12.37;;
48122;SDS011;33907;47.426;18.906;2023-05-07T01:58:07;15.98;;;12.80;;
48122;SDS011;33907;47.426;18.906;2023-05-07T02:00:35;16.05;;;12.05;;
48122;SDS011;33907;47.426;18.906;2023-05-07T02:03:03;17.45;;;12.77;;
48122;SDS011;33907;47.426;18.906;2023-05-07T02:05:32;15.18;;;12.50;;
48122;SDS011;33907;47.426;18.906;2023-05-07T02:08:01;16.55;;;13.02;;
48122;SDS011;33907;47.426;18.906;2023-05-07T02:10:29;15.35;;;11.95;;
48122;SDS011;33907;47.426;18.906;2023-05-07T02:12:57;16.00;;;12.37;;
48122;SDS011;33907;47.426;18.906;2023-05-07T02:15:24;15.43;;;12.25;;
48122;SDS011;33907;47.426;18.906;2023-05-07T02:18:02;19.02;;;13.38;;
48122;SDS011;33907;47.426;18.906;2023-05-07T02:20:31;21.17;;;13.93;;
48122;SDS011;33907;47.426;18.906;2023-05-07T02:22:58;14.38;;;11.82;;
48122;SDS011;33907;47.426;18.906;2023-05-07T02:25:27;16.67;;;12.60;;
48122;SDS011;33907;47.426;18.906;2023-05-07T02:27:54;15.02;;;12.68;;
48122;SDS011;33907;47.426;18.906;2023-05-07T02:30:23;15.98;;;12.27;;
48122;SDS011;33907;47.426;18.906;2023-05-07T02:32:51;13.98;;;11.00;;
48122;SDS011;33907;47.426;18.906;2023-05-07T02:35:19;14.32;;;11.27;;
48122;SDS011;33907;47.426;18.906;2023-05-07T02:37:46;15.40;;;11.77;;
48122;SDS011;33907;47.426;18.906;2023-05-07T02:40:14;14.25;;;11.15;;
48122;SDS011;33907;47.426;18.906;2023-05-07T02:42:42;13.68;;;10.82;;
48122;SDS011;33907;47.426;18.906;2023-05-07T02:45:09;15.90;;;11.02;;
48122;SDS011;33907;47.426;18.906;2023-05-07T02:47:38;13.80;;;11.15;;
48122;SDS011;33907;47.426;18.906;2023-05-07T02:50:06;13.48;;;10.88;;
48122;SDS011;33907;47.426;18.906;2023-05-07T02:52:35;13.40;;;10.07;;
48122;SDS011;33907;47.426;18.906;2023-05-07T02:55:04;14.00;;;10.52;;
48122;SDS011;33907;47.426;18.906;2023-05-07T02:57:32;13.35;;;10.45;;
48122;SDS011;33907;47.426;18.906;2023-05-07T02:59:59;13.15;;;10.10;;
48122;SDS011;33907;47.426;18.906;2023-05-07T03:02:31;13.95;;;9.77;;
48122;SDS011;33907;47.426;18.906;2023-05-07T03:04:58;13.35;;;10.32;;
48122;SDS011;33907;47.426;18.906;2023-05-07T03:07:26;13.02;;;10.25;;
48122;SDS011;33907;47.426;18.906;2023-05-07T03:09:54;14.32;;;10.32;;
48122;SDS011;33907;47.426;18.906;2023-05-07T03:12:21;15.00;;;10.77;;
48122;SDS011;33907;47.426;18.906;2023-05-07T03:14:49;13.65;;;11.38;;
48122;SDS011;33907;47.426;18.906;2023-05-07T03:17:17;13.80;;;10.68;;
48122;SDS011;33907;47.426;18.906;2023-05-07T03:19:45;14.05;;;11.43;;
48122;SDS011;33907;47.426;18.906;2023-05-07T03:22:12;14.45;;;10.93;;
48122;SDS011;33907;47.426;18.906;2023-05-07T03:24:40;14.30;;;11.57;;
48122;SDS011;33907;47.426;18.906;2023-05-07T03:27:07;12.80;;;10.50;;
48122;SDS011;33907;47.426;18.906;2023-05-07T03:29:35;15.65;;;9.70;;
48122;SDS011;33907;47.426;18.906;2023-05-07T03:32:03;11.88;;;9.73;;
48122;SDS011;33907;47.426;18.906;2023-05-07T03:34:31;13.32;;;9.40;;
48122;SDS011;33907;47.426;18.906;2023-05-07T03:36:58;12.98;;;10.35;;
48122;SDS011;33907;47.426;18.906;2023-05-07T03:39:28;15.13;;;11.15;;
48122;SDS011;33907;47.426;18.906;2023-05-07T03:41:57;14.85;;;11.50;;
48122;SDS011;33907;47.426;18.906;2023-05-07T03:44:26;13.70;;;9.95;;
48122;SDS011;33907;47.426;18.906;2023-05-07T03:46:59;15.38;;;10.68;;
48122;SDS011;33907;47.426;18.906;2023-05-07T03:49:26;13.65;;;10.77;;
48122;SDS011;33907;47.426;18.906;2023-05-07T03:51:54;12.95;;;10.35;;
48122;SDS011;33907;47.426;18.906;2023-05-07T03:54:22;14.13;;;11.12;;
48122;SDS011;33907;47.426;18.906;2023-05-07T03:56:49;13.98;;;10.38;;
48122;SDS011;33907;47.426;18.906;2023-05-07T03:59:17;12.25;;;9.52;;
48122;SDS011;33907;47.426;18.906;2023-05-07T04:01:44;13.27;;;9.70;;
48122;SDS011;33907;47.426;18.906;2023-05-07T04:04:14;13.50;;;10.52;;
48122;SDS011;33907;47.426;18.906;2023-05-07T04:06:43;15.38;;;11.30;;
48122;SDS011;33907;47.426;18.906;2023-05-07T04:09:10;14.65;;;12.02;;
48122;SDS011;33907;47.426;18.906;2023-05-07T04:11:38;12.40;;;10.68;;
48122;SDS011;33907;47.426;18.906;2023-05-07T04:14:07;15.18;;;11.57;;
48122;SDS011;33907;47.426;18.906;2023-05-07T04:16:35;13.82;;;10.35;;
48122;SDS011;33907;47.426;18.906;2023-05-07T04:19:03;13.65;;;10.35;;
48122;SDS011;33907;47.426;18.906;2023-05-07T04:21:31;13.43;;;10.45;;
48122;SDS011;33907;47.426;18.906;2023-05-07T04:23:59;13.35;;;10.60;;
48122;SDS011;33907;47.426;18.906;2023-05-07T04:26:27;13.48;;;10.07;;
48122;SDS011;33907;47.426;18.906;2023-05-07T04:28:55;11.68;;;8.65;;
48122;SDS011;33907;47.426;18.906;2023-05-07T04:31:24;10.57;;;8.73;;
48122;SDS011;33907;47.426;18.906;2023-05-07T04:33:52;12.10;;;8.40;;
48122;SDS011;33907;47.426;18.906;2023-05-07T04:36:19;11.18;;;7.85;;
48122;SDS011;33907;47.426;18.906;2023-05-07T04:38:47;9.68;;;7.20;;
48122;SDS011;33907;47.426;18.906;2023-05-07T04:41:16;9.85;;;7.25;;
48122;SDS011;33907;47.426;18.906;2023-05-07T04:43:44;10.95;;;6.60;;
48122;SDS011;33907;47.426;18.906;2023-05-07T04:46:12;9.75;;;6.95;;
48122;SDS011;33907;47.426;18.906;2023-05-07T04:48:40;10.70;;;5.53;;
48122;SDS011;33907;47.426;18.906;2023-05-07T04:51:08;9.55;;;6.35;;
48122;SDS011;33907;47.426;18.906;2023-05-07T04:53:36;29.12;;;5.78;;
48122;SDS011;33907;47.426;18.906;2023-05-07T04:56:05;9.13;;;4.90;;
48122;SDS011;33907;47.426;18.906;2023-05-07T04:58:33;7.75;;;5.03;;
48122;SDS011;33907;47.426;18.906;2023-05-07T05:01:00;8.98;;;5.05;;
48122;SDS011;33907;47.426;18.906;2023-05-07T05:03:29;9.25;;;4.40;;
48122;SDS011;33907;47.426;18.906;2023-05-07T05:05:57;6.47;;;4.05;;
48122;SDS011;33907;47.426;18.906;2023-05-07T05:08:27;6.90;;;4.62;;
48122;SDS011;33907;47.426;18.906;2023-05-07T05:10:56;7.57;;;5.07;;
48122;SDS011;33907;47.426;18.906;2023-05-07T05:13:24;8.70;;;4.62;;
48122;SDS011;33907;47.426;18.906;2023-05-07T05:15:53;7.10;;;4.78;;
48122;SDS011;33907;47.426;18.906;2023-05-07T05:18:21;7.12;;;4.80;;
48122;SDS011;33907;47.426;18.906;2023-05-07T05:20:48;8.70;;;5.93;;
48122;SDS011;33907;47.426;18.906;2023-05-07T05:23:16;9.27;;;6.47;;
48122;SDS011;33907;47.426;18.906;2023-05-07T05:25:43;9.93;;;5.85;;
48122;SDS011;33907;47.426;18.906;2023-05-07T05:28:12;10.05;;;6.35;;
48122;SDS011;33907;47.426;18.906;2023-05-07T05:30:39;8.63;;;6.05;;
48122;SDS011;33907;47.426;18.906;2023-05-07T05:33:07;9.10;;;5.82;;
48122;SDS011;33907;47.426;18.906;2023-05-07T05:35:35;12.25;;;6.37;;
48122;SDS011;33907;47.426;18.906;2023-05-07T05:38:03;9.77;;;6.50;;
48122;SDS011;33907;47.426;18.906;2023-05-07T05:40:32;9.00;;;6.18;;
48122;SDS011;33907;47.426;18.906;2023-05-07T05:43:00;10.07;;;6.30;;
48122;SDS011;33907;47.426;18.906;2023-05-07T05:45:28;10.05;;;6.75;;
48122;SDS011;33907;47.426;18.906;2023-05-07T05:47:56;10.02;;;6.57;;
48122;SDS011;33907;47.426;18.906;2023-05-07T05:50:26;12.65;;;6.72;;
48122;SDS011;33907;47.426;18.906;2023-05-07T05:52:54;10.70;;;7.70;;
48122;SDS011;33907;47.426;18.906;2023-05-07T05:55:21;9.65;;;6.80;;
48122;SDS011;33907;47.426;18.906;2023-05-07T05:57:49;8.20;;;6.57;;
48122;SDS011;33907;47.426;18.906;2023-05-07T06:00:17;9.77;;;6.53;;
48122;SDS011;33907;47.426;18.906;2023-05-07T06:02:45;8.43;;;5.47;;
48122;SDS011;33907;47.426;18.906;2023-05-07T06:05:14;8.52;;;6.07;;
48122;SDS011;33907;47.426;18.906;2023-05-07T06:07:42;8.70;;;5.60;;
48122;SDS011;33907;47.426;18.906;2023-05-07T06:10:10;11.95;;;5.55;;
48122;SDS011;33907;47.426;18.906;2023-05-07T06:12:39;7.70;;;5.30;;
48122;SDS011;33907;47.426;18.906;2023-05-07T06:15:07;6.35;;;4.40;;
48122;SDS011;33907;47.426;18.906;2023-05-07T06:17:34;6.97;;;4.10;;
48122;SDS011;33907;47.426;18.906;2023-05-07T06:20:02;6.85;;;4.43;;
48122;SDS011;33907;47.426;18.906;2023-05-07T06:22:30;5.20;;;3.60;;
48122;SDS011;33907;47.426;18.906;2023-05-07T06:24:58;5.95;;;3.15;;
48122;SDS011;33907;47.426;18.906;2023-05-07T06:27:25;6.07;;;2.37;;
48122;SDS011;33907;47.426;18.906;2023-05-07T06:29:55;4.60;;;2.58;;
48122;SDS011;33907;47.426;18.906;2023-05-07T06:32:23;5.00;;;2.53;;
48122;SDS011;33907;47.426;18.906;2023-05-07T06:34:51;5.10;;;3.03;;
48122;SDS011;33907;47.426;18.906;2023-05-07T06:37:18;5.78;;;3.22;;
48122;SDS011;33907;47.426;18.906;2023-05-07T06:39:46;7.80;;;3.17;;
48122;SDS011;33907;47.426;18.906;2023-05-07T06:42:15;6.25;;;3.60;;
48122;SDS011;33907;47.426;18.906;2023-05-07T06:44:43;5.50;;;3.03;;
48122;SDS011;33907;47.426;18.906;2023-05-07T06:47:10;7.45;;;3.30;;
48122;SDS011;33907;47.426;18.906;2023-05-07T06:49:43;4.55;;;2.60;;
48122;SDS011;33907;47.426;18.906;2023-05-07T06:52:12;6.50;;;3.08;;
48122;SDS011;33907;47.426;18.906;2023-05-07T06:54:40;6.22;;;3.17;;
48122;SDS011;33907;47.426;18.906;2023-05-07T06:57:08;5.35;;;3.50;;
48122;SDS011;33907;47.426;18.906;2023-05-07T06:59:36;5.53;;;3.22;;
48122;SDS011;33907;47.426;18.906;2023-05-07T07:02:03;4.43;;;2.65;;
48122;SDS011;33907;47.426;18.906;2023-05-07T07:04:31;5.55;;;3.20;;
48122;SDS011;33907;47.426;18.906;2023-05-07T07:06:59;5.55;;;3.00;;
48122;SDS011;33907;47.426;18.906;2023-05-07T07:09:28;4.93;;;2.67;;
48122;SDS011;33907;47.426;18.906;2023-05-07T07:11:55;5.03;;;2.80;;
48122;SDS011;33907;47.426;18.906;2023-05-07T07:14:23;5.55;;;2.85;;
48122;SDS011;33907;47.426;18.906;2023-05-07T07:16:51;4.80;;;2.97;;
48122;SDS011;33907;47.426;18.906;2023-05-07T07:19:21;4.20;;;2.25;;
48122;SDS011;33907;47.426;18.906;2023-05-07T07:21:49;7.95;;;4.05;;
48122;SDS011;33907;47.426;18.906;2023-05-07T07:24:16;10.90;;;5.07;;
48122;SDS011;33907;47.426;18.906;2023-05-07T07:26:48;8.27;;;6.20;;
48122;SDS011;33907;47.426;18.906;2023-05-07T07:29:16;11.07;;;5.60;;
48122;SDS011;33907;47.426;18.906;2023-05-07T07:31:43;8.77;;;6.05;;
48122;SDS011;33907;47.426;18.906;2023-05-07T07:34:11;10.02;;;5.82;;
48122;SDS011;33907;47.426;18.906;2023-05-07T07:36:39;9.13;;;6.35;;
48122;SDS011;33907;47.426;18.906;2023-05-07T07:39:13;7.87;;;5.37;;
48122;SDS011;33907;47.426;18.906;2023-05-07T07:41:41;10.75;;;7.45;;
48122;SDS011;33907;47.426;18.906;2023-05-07T07:44:09;13.40;;;8.02;;
48122;SDS011;33907;47.426;18.906;2023-05-07T07:46:44;12.00;;;8.07;;
48122;SDS011;33907;47.426;18.906;2023-05-07T07:49:11;11.43;;;7.72;;
48122;SDS011;33907;47.426;18.906;2023-05-07T07:51:39;9.52;;;6.93;;
48122;SDS011;33907;47.426;18.906;2023-05-07T07:54:06;11.25;;;7.32;;
48122;SDS011;33907;47.426;18.906;2023-05-07T07:56:34;20.95;;;10.10;;
48122;SDS011;33907;47.426;18.906;2023-05-07T07:59:02;13.02;;;8.68;;
48122;SDS011;33907;47.426;18.906;2023-05-07T08:01:31;14.52;;;8.95;;
48122;SDS011;33907;47.426;18.906;2023-05-07T08:03:59;13.73;;;9.48;;
48122;SDS011;33907;47.426;18.906;2023-05-07T08:06:27;13.50;;;10.07;;
48122;SDS011;33907;47.426;18.906;2023-05-07T08:08:55;13.48;;;9.52;;
48122;SDS011;33907;47.426;18.906;2023-05-07T08:11:26;13.93;;;10.20;;
48122;SDS011;33907;47.426;18.906;2023-05-07T08:13:54;15.27;;;10.63;;
48122;SDS011;33907;47.426;18.906;2023-05-07T08:16:22;15.10;;;9.40;;
48122;SDS011;33907;47.426;18.906;2023-05-07T08:18:51;14.18;;;10.30;;
48122;SDS011;33907;47.426;18.906;2023-05-07T08:21:19;12.93;;;9.27;;
48122;SDS011;33907;47.426;18.906;2023-05-07T08:23:47;20.75;;;10.10;;
48122;SDS011;33907;47.426;18.906;2023-05-07T08:26:15;12.05;;;8.55;;
48122;SDS011;33907;47.426;18.906;2023-05-07T08:28:42;13.20;;;9.40;;
48122;SDS011;33907;47.426;18.906;2023-05-07T08:31:10;13.13;;;9.00;;
48122;SDS011;33907;47.426;18.906;2023-05-07T08:33:38;12.13;;;9.35;;
48122;SDS011;33907;47.426;18.906;2023-05-07T08:36:05;11.85;;;8.25;;
48122;SDS011;33907;47.426;18.906;2023-05-07T08:38:33;12.63;;;9.63;;
48122;SDS011;33907;47.426;18.906;2023-05-07T08:41:01;13.00;;;8.25;;
48122;SDS011;33907;47.426;18.906;2023-05-07T08:43:29;13.10;;;9.45;;
48122;SDS011;33907;47.426;18.906;2023-05-07T08:45:59;12.02;;;8.77;;
48122;SDS011;33907;47.426;18.906;2023-05-07T08:48:29;11.82;;;9.18;;
48122;SDS011;33907;47.426;18.906;2023-05-07T08:50:59;28.23;;;12.52;;
48122;SDS011;33907;47.426;18.906;2023-05-07T08:53:26;14.63;;;9.93;;
48122;SDS011;33907;47.426;18.906;2023-05-07T08:55:54;11.73;;;8.65;;
48122;SDS011;33907;47.426;18.906;2023-05-07T08:58:24;12.25;;;8.88;;
48122;SDS011;33907;47.426;18.906;2023-05-07T09:00:52;13.82;;;8.63;;
48122;SDS011;33907;47.426;18.906;2023-05-07T09:03:20;10.85;;;8.13;;
48122;SDS011;33907;47.426;18.906;2023-05-07T09:05:48;12.07;;;8.07;;
48122;SDS011;33907;47.426;18.906;2023-05-07T09:08:16;12.32;;;7.65;;
48122;SDS011;33907;47.426;18.906;2023-05-07T09:10:44;11.90;;;5.78;;
48122;SDS011;33907;47.426;18.906;2023-05-07T09:13:12;7.82;;;5.62;;
48122;SDS011;33907;47.426;18.906;2023-05-07T09:15:42;9.35;;;7.03;;
48122;SDS011;33907;47.426;18.906;2023-05-07T09:18:10;13.85;;;6.78;;
48122;SDS011;33907;47.426;18.906;2023-05-07T09:20:38;7.62;;;5.43;;
48122;SDS011;33907;47.426;18.906;2023-05-07T09:23:07;13.35;;;6.53;;
48122;SDS011;33907;47.426;18.906;2023-05-07T09:25:35;10.75;;;6.35;;
48122;SDS011;33907;47.426;18.906;2023-05-07T09:28:04;11.70;;;6.45;;
48122;SDS011;33907;47.426;18.906;2023-05-07T09:30:34;11.75;;;6.07;;
48122;SDS011;33907;47.426;18.906;2023-05-07T09:33:03;6.50;;;4.43;;
48122;SDS011;33907;47.426;18.906;2023-05-07T09:35:32;10.13;;;4.85;;
48122;SDS011;33907;47.426;18.906;2023-05-07T09:38:00;8.02;;;5.25;;
48122;SDS011;33907;47.426;18.906;2023-05-07T09:40:31;7.82;;;5.12;;
48122;SDS011;33907;47.426;18.906;2023-05-07T09:43:08;15.25;;;5.15;;
48122;SDS011;33907;47.426;18.906;2023-05-07T09:45:41;9.48;;;5.25;;
48122;SDS011;33907;47.426;18.906;2023-05-07T09:48:09;7.18;;;5.20;;
48122;SDS011;33907;47.426;18.906;2023-05-07T09:50:40;8.27;;;4.93;;
48122;SDS011;33907;47.426;18.906;2023-05-07T09:53:14;6.57;;;4.53;;
48122;SDS011;33907;47.426;18.906;2023-05-07T09:55:43;8.70;;;5.28;;
48122;SDS011;33907;47.426;18.906;2023-05-07T09:58:13;9.70;;;7.00;;
48122;SDS011;33907;47.426;18.906;2023-05-07T10:00:52;8.18;;;6.12;;
48122;SDS011;33907;47.426;18.906;2023-05-07T10:03:20;8.02;;;5.97;;
48122;SDS011;33907;47.426;18.906;2023-05-07T10:05:49;11.05;;;7.70;;
48122;SDS011;33907;47.426;18.906;2023-05-07T10:08:18;9.23;;;7.12;;
48122;SDS011;33907;47.426;18.906;2023-05-07T10:10:47;10.90;;;7.62;;
48122;SDS011;33907;47.426;18.906;2023-05-07T10:13:17;11.15;;;7.43;;
48122;SDS011;33907;47.426;18.906;2023-05-07T10:15:49;10.02;;;7.50;;
48122;SDS011;33907;47.426;18.906;2023-05-07T10:18:18;11.12;;;6.93;;
48122;SDS011;33907;47.426;18.906;2023-05-07T10:20:50;10.30;;;7.55;;
48122;SDS011;33907;47.426;18.906;2023-05-07T10:23:19;9.68;;;7.35;;
48122;SDS011;33907;47.426;18.906;2023-05-07T10:25:51;11.98;;;7.30;;
48122;SDS011;33907;47.426;18.906;2023-05-07T10:28:26;9.95;;;7.40;;
48122;SDS011;33907;47.426;18.906;2023-05-07T10:30:58;11.12;;;6.50;;
48122;SDS011;33907;47.426;18.906;2023-05-07T10:33:33;10.52;;;7.37;;
48122;SDS011;33907;47.426;18.906;2023-05-07T10:36:02;11.05;;;6.40;;
48122;SDS011;33907;47.426;18.906;2023-05-07T10:38:32;8.70;;;5.75;;
48122;SDS011;33907;47.426;18.906;2023-05-07T10:40:59;15.20;;;8.38;;
48122;SDS011;33907;47.426;18.906;2023-05-07T10:43:39;9.35;;;5.30;;
48122;SDS011;33907;47.426;18.906;2023-05-07T10:46:29;9.05;;;4.93;;
48122;SDS011;33907;47.426;18.906;2023-05-07T10:51:29;7.28;;;4.43;;
48122;SDS011;33907;47.426;18.906;2023-05-07T10:56:39;8.85;;;5.47;;
48122;SDS011;33907;47.426;18.906;2023-05-07T11:02:04;8.20;;;5.62;;
48122;SDS011;33907;47.426;18.906;2023-05-07T11:04:35;6.85;;;4.80;;
48122;SDS011;33907;47.426;18.906;2023-05-07T11:09:57;9.07;;;5.55;;
48122;SDS011;33907;47.426;18.906;2023-05-07T11:15:09;21.33;;;12.18;;
48122;SDS011;33907;47.426;18.906;2023-05-07T11:17:53;7.57;;;5.28;;
48122;SDS011;33907;47.426;18.906;2023-05-07T11:26:02;7.43;;;3.92;;
48122;SDS011;33907;47.426;18.906;2023-05-07T11:28:37;7.05;;;3.15;;
48122;SDS011;33907;47.426;18.906;2023-05-07T11:31:07;6.93;;;3.10;;
48122;SDS011;33907;47.426;18.906;2023-05-07T11:33:36;6.07;;;3.30;;
48122;SDS011;33907;47.426;18.906;2023-05-07T11:36:05;4.82;;;2.40;;
48122;SDS011;33907;47.426;18.906;2023-05-07T11:38:37;5.10;;;3.00;;
48122;SDS011;33907;47.426;18.906;2023-05-07T11:41:06;4.82;;;2.58;;
48122;SDS011;33907;47.426;18.906;2023-05-07T11:43:34;4.07;;;2.60;;
48122;SDS011;33907;47.426;18.906;2023-05-07T11:46:10;5.35;;;2.78;;
48122;SDS011;33907;47.426;18.906;2023-05-07T11:51:06;5.57;;;2.92;;
48122;SDS011;33907;47.426;18.906;2023-05-07T11:53:39;6.20;;;3.30;;
48122;SDS011;33907;47.426;18.906;2023-05-07T11:56:09;5.75;;;2.92;;
48122;SDS011;33907;47.426;18.906;2023-05-07T11:58:37;5.72;;;3.12;;
48122;SDS011;33907;47.426;18.906;2023-05-07T12:01:06;5.25;;;3.30;;
48122;SDS011;33907;47.426;18.906;2023-05-07T12:03:35;5.28;;;2.70;;
48122;SDS011;33907;47.426;18.906;2023-05-07T12:06:05;6.72;;;3.10;;
48122;SDS011;33907;47.426;18.906;2023-05-07T12:08:35;4.78;;;2.83;;
48122;SDS011;33907;47.426;18.906;2023-05-07T12:11:06;5.20;;;2.80;;
48122;SDS011;33907;47.426;18.906;2023-05-07T12:13:34;8.02;;;2.60;;
48122;SDS011;33907;47.426;18.906;2023-05-07T12:16:02;5.18;;;2.83;;
48122;SDS011;33907;47.426;18.906;2023-05-07T12:18:30;4.43;;;2.30;;
48122;SDS011;33907;47.426;18.906;2023-05-07T12:20:58;4.25;;;2.50;;
48122;SDS011;33907;47.426;18.906;2023-05-07T12:23:26;6.10;;;2.75;;
48122;SDS011;33907;47.426;18.906;2023-05-07T12:25:53;5.05;;;3.15;;
48122;SDS011;33907;47.426;18.906;2023-05-07T12:28:21;5.32;;;2.85;;
48122;SDS011;33907;47.426;18.906;2023-05-07T12:30:50;6.20;;;3.75;;
48122;SDS011;33907;47.426;18.906;2023-05-07T12:33:18;4.85;;;2.90;;
48122;SDS011;33907;47.426;18.906;2023-05-07T12:35:48;5.35;;;3.03;;
48122;SDS011;33907;47.426;18.906;2023-05-07T12:38:17;5.35;;;3.10;;
48122;SDS011;33907;47.426;18.906;2023-05-07T12:40:49;5.65;;;3.28;;
48122;SDS011;33907;47.426;18.906;2023-05-07T12:43:18;4.47;;;3.00;;
48122;SDS011;33907;47.426;18.906;2023-05-07T12:45:47;4.78;;;2.37;;
48122;SDS011;33907;47.426;18.906;2023-05-07T12:48:15;5.18;;;3.20;;
48122;SDS011;33907;47.426;18.906;2023-05-07T12:50:43;4.87;;;2.90;;
48122;SDS011;33907;47.426;18.906;2023-05-07T12:53:11;5.72;;;3.25;;
48122;SDS011;33907;47.426;18.906;2023-05-07T12:55:43;7.55;;;2.72;;
48122;SDS011;33907;47.426;18.906;2023-05-07T13:00:43;4.50;;;2.10;;
48122;SDS011;33907;47.426;18.906;2023-05-07T13:03:10;4.60;;;2.60;;
48122;SDS011;33907;47.426;18.906;2023-05-07T13:05:38;3.90;;;2.10;;
48122;SDS011;33907;47.426;18.906;2023-05-07T13:08:06;4.72;;;3.00;;
48122;SDS011;33907;47.426;18.906;2023-05-07T13:10:36;4.85;;;2.60;;
48122;SDS011;33907;47.426;18.906;2023-05-07T13:13:04;4.10;;;2.50;;
48122;SDS011;33907;47.426;18.906;2023-05-07T13:15:31;6.12;;;3.10;;
48122;SDS011;33907;47.426;18.906;2023-05-07T13:17:59;4.53;;;2.42;;
48122;SDS011;33907;47.426;18.906;2023-05-07T13:20:27;5.35;;;2.65;;
48122;SDS011;33907;47.426;18.906;2023-05-07T13:22:54;4.60;;;2.33;;
48122;SDS011;33907;47.426;18.906;2023-05-07T13:25:22;5.28;;;2.65;;
48122;SDS011;33907;47.426;18.906;2023-05-07T13:27:49;5.57;;;2.65;;
48122;SDS011;33907;47.426;18.906;2023-05-07T13:33:03;9.48;;;2.90;;
48122;SDS011;33907;47.426;18.906;2023-05-07T13:35:30;4.70;;;2.72;;
48122;SDS011;33907;47.426;18.906;2023-05-07T13:37:58;5.37;;;2.75;;
48122;SDS011;33907;47.426;18.906;2023-05-07T13:40:26;4.40;;;2.53;;
48122;SDS011;33907;47.426;18.906;2023-05-07T13:42:53;7.28;;;2.90;;
48122;SDS011;33907;47.426;18.906;2023-05-07T13:45:20;5.30;;;2.92;;
48122;SDS011;33907;47.426;18.906;2023-05-07T13:47:48;7.35;;;3.05;;
48122;SDS011;33907;47.426;18.906;2023-05-07T13:50:16;5.60;;;2.67;;
48122;SDS011;33907;47.426;18.906;2023-05-07T13:52:44;4.97;;;3.10;;
48122;SDS011;33907;47.426;18.906;2023-05-07T13:55:19;5.53;;;3.42;;
48122;SDS011;33907;47.426;18.906;2023-05-07T13:57:47;5.00;;;2.70;;
48122;SDS011;33907;47.426;18.906;2023-05-07T14:00:15;7.30;;;3.92;;
48122;SDS011;33907;47.426;18.906;2023-05-07T14:02:43;5.85;;;2.90;;
48122;SDS011;33907;47.426;18.906;2023-05-07T14:05:11;7.47;;;2.80;;
48122;SDS011;33907;47.426;18.906;2023-05-07T14:07:40;5.18;;;2.72;;
48122;SDS011;33907;47.426;18.906;2023-05-07T14:10:07;6.72;;;2.90;;
48122;SDS011;33907;47.426;18.906;2023-05-07T14:12:37;6.82;;;2.87;;
48122;SDS011;33907;47.426;18.906;2023-05-07T14:15:05;4.97;;;2.80;;
48122;SDS011;33907;47.426;18.906;2023-05-07T14:17:32;5.60;;;3.28;;
48122;SDS011;33907;47.426;18.906;2023-05-07T14:20:00;7.22;;;3.33;;
48122;SDS011;33907;47.426;18.906;2023-05-07T14:22:29;5.03;;;3.37;;
48122;SDS011;33907;47.426;18.906;2023-05-07T14:24:56;4.82;;;2.97;;
48122;SDS011;33907;47.426;18.906;2023-05-07T14:27:33;6.53;;;3.20;;
48122;SDS011;33907;47.426;18.906;2023-05-07T14:30:01;5.07;;;3.20;;
48122;SDS011;33907;47.426;18.906;2023-05-07T14:32:32;5.78;;;3.20;;
48122;SDS011;33907;47.426;18.906;2023-05-07T14:35:01;5.87;;;3.10;;
48122;SDS011;33907;47.426;18.906;2023-05-07T14:37:28;5.30;;;3.00;;
48122;SDS011;33907;47.426;18.906;2023-05-07T14:39:55;6.40;;;3.87;;
48122;SDS011;33907;47.426;18.906;2023-05-07T14:42:23;7.07;;;2.97;;
48122;SDS011;33907;47.426;18.906;2023-05-07T14:44:51;6.37;;;3.87;;
48122;SDS011;33907;47.426;18.906;2023-05-07T14:47:20;5.93;;;3.37;;
48122;SDS011;33907;47.426;18.906;2023-05-07T14:49:47;6.80;;;3.80;;
48122;SDS011;33907;47.426;18.906;2023-05-07T14:52:15;5.65;;;3.50;;
48122;SDS011;33907;47.426;18.906;2023-05-07T14:54:42;6.62;;;3.80;;
48122;SDS011;33907;47.426;18.906;2023-05-07T14:57:10;7.75;;;4.12;;
48122;SDS011;33907;47.426;18.906;2023-05-07T14:59:43;7.15;;;4.20;;
48122;SDS011;33907;47.426;18.906;2023-05-07T15:02:13;5.97;;;3.85;;